createdAt,value
2023-05-22T00:01:46.729Z,19.22
2023-05-22T00:04:21.643Z,19.20
2023-05-22T00:06:50.145Z,19.10
2023-05-22T00:09:18.188Z,19.01
2023-05-22T00:11:46.044Z,18.99
2023-05-22T00:14:14.464Z,18.99
2023-05-22T00:16:42.348Z,18.95
2023-05-22T00:19:13.559Z,18.95
2023-05-22T00:21:42.983Z,18.90
2023-05-22T00:24:10.904Z,18.89
2023-05-22T00:26:38.794Z,18.84
2023-05-22T00:29:06.741Z,18.80
2023-05-22T00:31:34.524Z,18.74
2023-05-22T00:34:02.429Z,18.73
2023-05-22T00:36:30.349Z,18.74
2023-05-22T00:38:59.484Z,18.74
2023-05-22T00:41:27.275Z,18.75
2023-05-22T00:43:55.215Z,18.74
2023-05-22T00:46:24.547Z,18.74
2023-05-22T00:48:52.842Z,18.76
2023-05-22T00:51:21.444Z,18.80
2023-05-22T00:53:49.501Z,18.84
2023-05-22T00:56:18.872Z,18.88
2023-05-22T00:58:46.724Z,18.91
2023-05-22T01:01:15.018Z,18.94
2023-05-22T01:03:44.777Z,18.97
2023-05-22T01:06:14.139Z,18.98
2023-05-22T01:08:43.809Z,18.98
2023-05-22T01:11:15.348Z,18.97
2023-05-22T01:13:50.297Z,18.98
2023-05-22T01:16:26.181Z,18.97
2023-05-22T01:19:00.862Z,18.96
2023-05-22T01:21:34.109Z,18.90
2023-05-22T01:24:36.151Z,18.77
2023-05-22T01:27:26.030Z,18.69
2023-05-22T01:30:05.208Z,18.67
2023-05-22T01:32:34.359Z,18.61
2023-05-22T01:35:03.683Z,18.67
2023-05-22T01:37:32.171Z,18.68
2023-05-22T01:40:00.496Z,18.65
2023-05-22T01:42:28.610Z,18.64
2023-05-22T01:44:56.386Z,18.65
2023-05-22T01:47:24.198Z,18.64
2023-05-22T01:49:53.476Z,18.62
2023-05-22T01:52:26.699Z,18.56
2023-05-22T01:54:59.680Z,18.53
2023-05-22T01:57:29.882Z,18.48
2023-05-22T02:00:02.431Z,18.43
2023-05-22T02:02:30.722Z,18.38
2023-05-22T02:05:01.194Z,18.32
2023-05-22T02:07:30.208Z,18.28
2023-05-22T02:09:57.874Z,18.21
2023-05-22T02:12:26.242Z,18.24
2023-05-22T02:14:54.110Z,18.27
2023-05-22T02:17:22.083Z,18.24
2023-05-22T02:19:49.920Z,18.23
2023-05-22T02:22:19.161Z,18.19
2023-05-22T02:24:50.039Z,18.17
2023-05-22T02:27:18.007Z,18.16
2023-05-22T02:29:45.712Z,18.12
2023-05-22T02:32:13.519Z,18.08
2023-05-22T02:34:42.107Z,18.06
2023-05-22T02:37:09.922Z,18.05
2023-05-22T02:39:39.071Z,18.04
2023-05-22T02:42:07.590Z,18.06
2023-05-22T02:44:35.346Z,18.07
2023-05-22T02:47:03.216Z,18.07
2023-05-22T02:49:30.971Z,18.06
2023-05-22T02:51:58.856Z,18.07
2023-05-22T02:54:26.621Z,18.09
2023-05-22T02:56:55.856Z,18.08
2023-05-22T02:59:23.729Z,18.10
2023-05-22T03:01:51.694Z,18.14
2023-05-22T03:04:19.455Z,18.19
2023-05-22T03:06:47.298Z,18.20
2023-05-22T03:09:15.999Z,18.21
2023-05-22T03:11:43.812Z,18.19
2023-05-22T03:14:12.911Z,18.17
2023-05-22T03:16:41.514Z,18.13
2023-05-22T03:19:10.629Z,18.10
2023-05-22T03:21:38.300Z,18.02
2023-05-22T03:24:06.608Z,18.03
2023-05-22T03:26:34.662Z,18.00
2023-05-22T03:29:02.442Z,17.97
2023-05-22T03:31:33.727Z,17.95
2023-05-22T03:34:01.633Z,17.93
2023-05-22T03:36:31.751Z,17.93
2023-05-22T03:39:00.182Z,17.94
2023-05-22T03:41:28.036Z,17.93
2023-05-22T03:43:55.921Z,17.91
2023-05-22T03:46:23.805Z,17.89
2023-05-22T03:48:53.032Z,17.89
2023-05-22T03:51:20.778Z,17.87
2023-05-22T03:53:48.632Z,17.86
2023-05-22T03:56:17.143Z,17.87
2023-05-22T03:58:44.896Z,17.86
2023-05-22T04:01:13.887Z,17.85
2023-05-22T04:03:41.551Z,17.78
2023-05-22T04:06:10.866Z,17.80
2023-05-22T04:08:38.721Z,17.79
2023-05-22T04:11:08.362Z,17.78
2023-05-22T04:13:36.199Z,17.80
2023-05-22T04:16:04.513Z,17.83
2023-05-22T04:18:32.375Z,17.85
2023-05-22T04:21:00.204Z,17.89
2023-05-22T04:23:29.366Z,17.94
2023-05-22T04:25:58.275Z,17.97
2023-05-22T04:28:26.746Z,18.02
2023-05-22T04:33:22.719Z,18.08
2023-05-22T04:35:50.808Z,18.11
2023-05-22T04:38:19.106Z,18.16
2023-05-22T04:40:48.517Z,18.21
2023-05-22T04:43:18.704Z,18.23
2023-05-22T04:45:46.560Z,18.29
2023-05-22T04:48:15.397Z,18.33
2023-05-22T04:50:46.343Z,18.35
2023-05-22T04:53:14.159Z,18.37
2023-05-22T04:55:41.999Z,18.40
2023-05-22T04:58:11.246Z,18.40
2023-05-22T05:00:39.221Z,18.41
2023-05-22T05:03:08.441Z,18.41
2023-05-22T05:05:36.352Z,18.46
2023-05-22T05:08:04.164Z,18.49
2023-05-22T05:10:31.983Z,18.54
2023-05-22T05:12:59.772Z,18.59
2023-05-22T05:15:29.429Z,18.67
2023-05-22T05:17:57.281Z,18.74
2023-05-22T05:20:25.380Z,18.83
2023-05-22T05:22:53.157Z,18.92
2023-05-22T05:25:21.000Z,19.04
2023-05-22T05:27:48.813Z,19.15
2023-05-22T05:30:17.634Z,19.28
2023-05-22T05:32:48.822Z,19.43
2023-05-22T05:35:16.833Z,19.56
2023-05-22T05:37:44.587Z,19.67
2023-05-22T05:40:13.517Z,19.81
2023-05-22T05:42:41.110Z,19.87
2023-05-22T05:45:10.006Z,20.07
2023-05-22T05:47:37.658Z,20.07
2023-05-22T05:50:07.673Z,20.20
2023-05-22T05:52:35.485Z,20.27
2023-05-22T05:55:03.464Z,20.38
2023-05-22T05:57:32.072Z,20.50
2023-05-22T05:59:59.879Z,20.63
2023-05-22T06:02:27.754Z,20.77
2023-05-22T06:04:56.041Z,20.91
2023-05-22T06:07:25.346Z,21.04
2023-05-22T06:09:53.109Z,21.19
2023-05-22T06:12:21.335Z,21.32
2023-05-22T06:14:49.116Z,21.46
2023-05-22T06:17:16.969Z,21.54
2023-05-22T06:19:44.754Z,21.58
2023-05-22T06:22:12.529Z,21.64
2023-05-22T06:24:41.803Z,21.72
2023-05-22T06:27:09.690Z,21.81
2023-05-22T06:29:37.459Z,21.94
2023-05-22T06:32:06.006Z,22.08
2023-05-22T06:34:33.989Z,22.17
2023-05-22T06:37:01.777Z,22.34
2023-05-22T06:39:31.143Z,22.56
2023-05-22T06:42:01.104Z,22.81
2023-05-22T06:44:28.931Z,23.01
2023-05-22T06:46:56.730Z,23.21
2023-05-22T06:49:24.563Z,23.45
2023-05-22T06:51:52.325Z,23.69
2023-05-22T06:54:21.481Z,23.90
2023-05-22T06:56:49.255Z,24.05
2023-05-22T06:59:18.468Z,24.14
2023-05-22T07:01:46.358Z,24.26
2023-05-22T07:04:15.277Z,24.37
2023-05-22T07:06:43.477Z,24.43
2023-05-22T07:09:13.904Z,24.49
2023-05-22T07:11:42.861Z,24.49
2023-05-22T07:14:12.494Z,24.48
2023-05-22T07:16:42.058Z,24.56
2023-05-22T07:19:11.486Z,24.65
2023-05-22T07:21:39.655Z,24.76
2023-05-22T07:24:09.145Z,24.83
2023-05-22T07:26:37.024Z,24.84
2023-05-22T07:29:05.828Z,24.93
2023-05-22T07:31:34.457Z,24.98
2023-05-22T07:34:03.723Z,24.97
2023-05-22T07:36:31.914Z,25.01
2023-05-22T07:38:59.720Z,25.01
2023-05-22T07:41:28.359Z,25.12
2023-05-22T07:43:56.156Z,25.29
2023-05-22T07:46:23.996Z,25.49
2023-05-22T07:48:51.837Z,26.84
2023-05-22T07:51:21.042Z,28.39
2023-05-22T07:53:48.980Z,29.30
2023-05-22T07:56:17.640Z,29.89
2023-05-22T07:58:48.110Z,30.49
2023-05-22T08:01:16.552Z,30.74
2023-05-22T08:03:44.579Z,30.97
2023-05-22T08:06:12.567Z,31.19
2023-05-22T08:08:41.836Z,31.48
2023-05-22T08:11:09.828Z,31.66
2023-05-22T08:13:38.738Z,31.81
2023-05-22T08:16:07.050Z,32.04
2023-05-22T08:18:35.598Z,32.07
2023-05-22T08:21:03.416Z,32.12
2023-05-22T08:23:31.088Z,31.68
2023-05-22T08:26:00.324Z,31.71
2023-05-22T08:28:28.065Z,31.11
2023-05-22T08:30:56.090Z,30.87
2023-05-22T08:33:24.352Z,30.89
2023-05-22T08:35:52.121Z,31.08
2023-05-22T08:38:19.924Z,30.57
2023-05-22T08:40:49.814Z,30.48
2023-05-22T08:43:21.225Z,30.24
2023-05-22T08:45:55.937Z,29.59
2023-05-22T08:48:24.791Z,29.71
2023-05-22T08:50:57.436Z,29.48
2023-05-22T08:53:26.652Z,29.78
2023-05-22T08:55:54.793Z,29.38
2023-05-22T08:58:23.731Z,29.01
2023-05-22T09:00:51.750Z,28.82
2023-05-22T09:03:21.549Z,28.80
2023-05-22T09:05:50.491Z,28.96
2023-05-22T09:08:20.892Z,29.06
2023-05-22T09:10:49.288Z,29.25
2023-05-22T09:13:28.230Z,29.14
2023-05-22T09:16:00.570Z,29.11
2023-05-22T09:18:29.899Z,29.08
2023-05-22T09:21:04.926Z,29.21
2023-05-22T09:23:35.049Z,29.26
2023-05-22T09:26:03.220Z,29.04
2023-05-22T09:28:35.991Z,28.87
2023-05-22T09:31:04.625Z,28.94
2023-05-22T09:33:33.242Z,29.06
2023-05-22T09:36:01.572Z,28.98
2023-05-22T09:38:30.838Z,28.87
2023-05-22T09:40:58.692Z,28.97
2023-05-22T09:43:26.505Z,29.11
2023-05-22T09:46:01.976Z,29.12
2023-05-22T09:48:30.327Z,29.33
2023-05-22T09:51:01.819Z,29.48
2023-05-22T09:53:29.961Z,29.48
2023-05-22T09:55:57.913Z,29.39
2023-05-22T09:58:25.614Z,29.07
2023-05-22T10:00:56.167Z,29.01
2023-05-22T10:03:27.100Z,28.80
2023-05-22T10:05:56.862Z,28.59
2023-05-22T10:08:26.942Z,28.48
2023-05-22T10:10:54.761Z,28.44
2023-05-22T10:13:23.060Z,28.34
2023-05-22T10:15:51.361Z,28.10
2023-05-22T10:18:19.305Z,28.06
2023-05-22T10:20:49.039Z,28.03
2023-05-22T10:23:16.983Z,28.04
2023-05-22T10:25:45.021Z,28.12
2023-05-22T10:28:17.789Z,28.20
2023-05-22T10:30:50.842Z,28.25
2023-05-22T10:33:21.397Z,28.22
2023-05-22T10:35:57.490Z,28.27
2023-05-22T10:38:52.196Z,28.39
2023-05-22T10:41:20.080Z,28.52
2023-05-22T10:43:50.700Z,28.57
2023-05-22T10:46:19.298Z,28.67
2023-05-22T10:48:48.313Z,28.62
2023-05-22T10:51:21.280Z,28.75
2023-05-22T10:53:53.209Z,28.87
2023-05-22T10:56:23.603Z,28.83
2023-05-22T10:59:02.659Z,28.82
2023-05-22T11:01:30.498Z,28.75
2023-05-22T11:03:59.437Z,28.74
2023-05-22T11:06:39.385Z,28.70
2023-05-22T11:09:21.749Z,28.80
2023-05-22T11:12:11.032Z,29.08
2023-05-22T11:14:40.223Z,29.16
2023-05-22T11:17:08.252Z,29.28
2023-05-22T11:19:36.027Z,29.17
2023-05-22T11:22:04.658Z,29.34
2023-05-22T11:24:34.150Z,29.44
2023-05-22T11:27:02.878Z,29.41
2023-05-22T11:29:30.685Z,29.45
2023-05-22T11:32:00.240Z,29.61
2023-05-22T11:34:28.255Z,29.66
2023-05-22T11:36:59.119Z,29.70
2023-05-22T11:39:27.138Z,29.77
2023-05-22T11:41:54.949Z,29.87
2023-05-22T11:44:22.916Z,30.07
2023-05-22T11:46:51.129Z,30.29
2023-05-22T11:49:23.943Z,30.08
2023-05-22T11:51:52.996Z,30.35
2023-05-22T11:54:22.231Z,30.42
2023-05-22T11:56:50.067Z,30.52
2023-05-22T11:59:17.810Z,30.34
2023-05-22T12:01:45.565Z,30.11
2023-05-22T12:04:13.945Z,30.23
2023-05-22T12:06:43.496Z,30.38
2023-05-22T12:09:11.554Z,30.41
2023-05-22T12:11:39.493Z,30.48
2023-05-22T12:14:07.564Z,30.38
2023-05-22T12:16:38.838Z,30.00
2023-05-22T12:19:07.983Z,29.74
2023-05-22T12:21:36.601Z,29.73
2023-05-22T12:24:06.786Z,29.93
2023-05-22T12:26:34.694Z,30.04
2023-05-22T12:29:02.765Z,30.16
2023-05-22T12:31:35.902Z,30.49
2023-05-22T12:34:05.516Z,30.81
2023-05-22T12:36:35.217Z,31.03
2023-05-22T12:39:03.404Z,31.22
2023-05-22T12:41:32.391Z,31.11
2023-05-22T12:44:02.038Z,31.05
2023-05-22T12:46:30.867Z,30.94
2023-05-22T12:48:58.722Z,30.75
2023-05-22T12:51:29.121Z,30.50
2023-05-22T12:53:57.085Z,30.47
2023-05-22T12:56:24.913Z,30.51
2023-05-22T12:58:54.369Z,30.67
2023-05-22T13:01:24.397Z,30.86
2023-05-22T13:03:52.911Z,30.97
2023-05-22T13:06:21.367Z,30.99
2023-05-22T13:08:49.193Z,31.00
2023-05-22T13:11:17.327Z,31.14
2023-05-22T13:13:44.886Z,31.26
2023-05-22T13:16:14.092Z,31.56
2023-05-22T13:18:41.863Z,31.62
2023-05-22T13:21:09.679Z,31.67
2023-05-22T13:23:37.575Z,31.76
2023-05-22T13:26:21.517Z,31.82
2023-05-22T13:28:51.794Z,32.09
2023-05-22T13:31:21.154Z,32.26
2023-05-22T13:33:49.156Z,32.40
2023-05-22T13:36:16.747Z,32.37
2023-05-22T13:38:44.565Z,32.54
2023-05-22T13:41:12.422Z,32.61
2023-05-22T13:43:40.187Z,32.46
2023-05-22T13:46:08.243Z,32.52
2023-05-22T13:48:37.250Z,32.28
2023-05-22T13:51:05.257Z,32.43
2023-05-22T13:53:32.852Z,32.39
2023-05-22T13:56:01.962Z,32.64
2023-05-22T13:58:29.755Z,32.66
2023-05-22T14:00:57.619Z,32.69
2023-05-22T14:03:25.437Z,32.68
2023-05-22T14:05:54.681Z,32.61
2023-05-22T14:08:22.508Z,32.49
2023-05-22T14:10:50.326Z,32.46
2023-05-22T14:13:18.127Z,32.53
2023-05-22T14:15:47.234Z,32.62
2023-05-22T14:18:16.503Z,32.60
2023-05-22T14:20:44.595Z,32.64
2023-05-22T14:23:14.478Z,32.57
2023-05-22T14:25:43.305Z,32.51
2023-05-22T14:28:11.432Z,32.51
2023-05-22T14:30:39.150Z,32.16
2023-05-22T14:33:07.280Z,32.07
2023-05-22T14:35:34.961Z,31.60
2023-05-22T14:38:03.000Z,31.24
2023-05-22T14:40:32.248Z,30.79
2023-05-22T14:43:00.164Z,30.40
2023-05-22T14:45:27.951Z,30.00
2023-05-22T14:47:55.902Z,29.59
2023-05-22T14:50:23.780Z,29.28
2023-05-22T14:52:51.702Z,29.02
2023-05-22T14:55:21.096Z,28.78
2023-05-22T14:57:50.317Z,28.61
2023-05-22T15:00:18.679Z,28.48
2023-05-22T15:02:46.423Z,28.26
2023-05-22T15:05:14.322Z,28.37
2023-05-22T15:07:45.359Z,28.49
2023-05-22T15:10:13.972Z,28.50
2023-05-22T15:12:41.754Z,28.49
2023-05-22T15:15:12.106Z,28.53
2023-05-22T15:17:42.680Z,28.65
2023-05-22T15:20:11.988Z,28.73
2023-05-22T15:22:39.812Z,28.80
2023-05-22T15:25:09.697Z,28.89
2023-05-22T15:27:37.620Z,29.00
2023-05-22T15:30:06.671Z,29.02
2023-05-22T15:32:36.470Z,29.08
2023-05-22T15:35:05.542Z,29.09
2023-05-22T15:37:33.847Z,29.06
2023-05-22T15:40:02.408Z,29.08
2023-05-22T15:42:30.638Z,29.09
2023-05-22T15:44:59.644Z,29.03
2023-05-22T15:47:27.443Z,28.94
2023-05-22T15:49:56.665Z,28.75
2023-05-22T15:52:24.673Z,28.67
2023-05-22T15:54:53.187Z,28.62
2023-05-22T15:57:21.753Z,28.64
2023-05-22T15:59:50.870Z,28.61
2023-05-22T16:02:19.355Z,28.66
2023-05-22T16:04:46.958Z,28.44
2023-05-22T16:07:17.100Z,28.30
2023-05-22T16:09:44.808Z,28.11
2023-05-22T16:12:12.595Z,27.87
2023-05-22T16:14:40.549Z,27.47
2023-05-22T16:17:08.478Z,26.52
2023-05-22T16:19:36.420Z,25.58
2023-05-22T16:22:04.314Z,24.73
2023-05-22T16:24:33.502Z,24.08
2023-05-22T16:27:01.384Z,23.57
2023-05-22T16:29:29.163Z,23.13
2023-05-22T16:31:57.607Z,22.65
2023-05-22T16:34:25.535Z,21.83
2023-05-22T16:36:53.329Z,21.29
2023-05-22T16:39:21.148Z,21.05
2023-05-22T16:41:52.838Z,20.81
2023-05-22T16:44:21.502Z,20.77
2023-05-22T16:46:49.865Z,20.87
2023-05-22T16:49:17.769Z,20.90
2023-05-22T16:51:45.623Z,21.06
2023-05-22T16:54:13.566Z,21.17
2023-05-22T16:56:41.365Z,21.12
2023-05-22T16:59:10.511Z,21.02
2023-05-22T17:01:38.495Z,20.89
2023-05-22T17:04:06.381Z,20.78
2023-05-22T17:06:35.456Z,20.62
2023-05-22T17:09:03.563Z,20.53
2023-05-22T17:11:31.457Z,20.43
2023-05-22T17:13:59.261Z,20.33
2023-05-22T17:16:28.430Z,20.22
2023-05-22T17:18:56.285Z,20.18
2023-05-22T17:21:24.301Z,20.14
2023-05-22T17:23:52.270Z,20.07
2023-05-22T17:26:20.380Z,20.03
2023-05-22T17:28:48.217Z,19.96
2023-05-22T17:31:16.320Z,19.95
2023-05-22T17:33:45.518Z,19.89
2023-05-22T17:36:13.427Z,19.88
2023-05-22T17:38:41.284Z,19.89
2023-05-22T17:41:09.073Z,19.96
2023-05-22T17:43:38.223Z,20.03
2023-05-22T17:46:06.498Z,20.10
2023-05-22T17:48:34.570Z,20.15
2023-05-22T17:51:04.047Z,20.20
2023-05-22T17:53:34.805Z,20.29
2023-05-22T17:56:03.542Z,20.37
2023-05-22T17:58:31.358Z,20.43
2023-05-22T18:00:59.195Z,20.47
2023-05-22T18:03:27.266Z,20.49
2023-05-22T18:05:55.228Z,20.52
2023-05-22T18:08:24.464Z,20.57
2023-05-22T18:10:52.517Z,20.64
2023-05-22T18:13:20.359Z,20.70
2023-05-22T18:15:49.155Z,20.74
2023-05-22T18:18:17.485Z,20.80
2023-05-22T18:20:46.221Z,20.84
2023-05-22T18:23:14.079Z,20.86
2023-05-22T18:25:43.258Z,20.87
2023-05-22T18:28:11.378Z,20.83
2023-05-22T18:30:39.483Z,20.83
2023-05-22T18:33:07.981Z,20.88
2023-05-22T18:35:35.832Z,20.87
2023-05-22T18:38:03.878Z,20.86
2023-05-22T18:40:32.026Z,20.73
2023-05-22T18:43:01.170Z,20.67
2023-05-22T18:45:28.966Z,20.55
2023-05-22T18:47:56.818Z,20.49
2023-05-22T18:50:24.732Z,20.39
2023-05-22T18:52:52.511Z,20.30
2023-05-22T18:55:20.359Z,20.20
2023-05-22T18:57:48.148Z,20.13
2023-05-22T19:00:17.818Z,20.02
2023-05-22T19:02:45.663Z,19.94
2023-05-22T19:05:13.570Z,19.85
2023-05-22T19:07:41.408Z,19.79
2023-05-22T19:10:10.075Z,19.75
2023-05-22T19:12:37.855Z,19.72
2023-05-22T19:15:06.909Z,19.67
2023-05-22T19:17:36.103Z,19.62
2023-05-22T19:20:06.544Z,19.62
2023-05-22T19:22:34.721Z,19.59
2023-05-22T19:25:03.053Z,19.59
2023-05-22T19:27:30.879Z,19.58
2023-05-22T19:29:58.678Z,19.57
2023-05-22T19:32:26.505Z,19.56
2023-05-22T19:34:55.848Z,19.52
2023-05-22T19:37:24.313Z,19.49
2023-05-22T19:39:52.128Z,19.43
2023-05-22T19:42:19.898Z,19.39
2023-05-22T19:44:47.780Z,19.36
2023-05-22T19:47:15.928Z,19.36
2023-05-22T19:49:43.698Z,19.35
2023-05-22T19:52:12.856Z,19.35
2023-05-22T19:54:40.618Z,19.30
2023-05-22T19:57:08.373Z,19.24
2023-05-22T19:59:36.854Z,19.19
2023-05-22T20:02:04.953Z,19.14
2023-05-22T20:04:32.736Z,19.12
2023-05-22T20:07:02.217Z,19.07
2023-05-22T20:09:31.641Z,19.04
2023-05-22T20:11:59.486Z,19.02
2023-05-22T20:14:27.294Z,18.95
2023-05-22T20:16:55.319Z,18.90
2023-05-22T20:19:24.316Z,18.83
2023-05-22T20:21:52.492Z,18.77
2023-05-22T20:24:21.384Z,18.71
2023-05-22T20:26:50.381Z,18.60
2023-05-22T20:29:18.264Z,18.56
2023-05-22T20:31:46.572Z,18.55
2023-05-22T20:34:14.394Z,18.49
2023-05-22T20:36:42.550Z,18.42
2023-05-22T20:39:11.943Z,18.36
2023-05-22T20:41:39.874Z,18.31
2023-05-22T20:44:09.489Z,18.23
2023-05-22T20:46:37.316Z,18.14
2023-05-22T20:49:06.175Z,18.09
2023-05-22T20:51:34.044Z,18.06
2023-05-22T20:54:01.896Z,18.02
2023-05-22T20:56:30.033Z,17.99
2023-05-22T20:58:57.985Z,17.94
2023-05-22T21:01:27.197Z,17.92
2023-05-22T21:03:56.396Z,17.87
2023-05-22T21:06:24.570Z,17.83
2023-05-22T21:08:54.178Z,17.80
2023-05-22T21:11:22.163Z,17.76
2023-05-22T21:13:50.386Z,17.73
2023-05-22T21:16:18.147Z,17.70
2023-05-22T21:18:47.363Z,17.69
2023-05-22T21:21:15.588Z,17.64
2023-05-22T21:23:43.462Z,17.61
2023-05-22T21:26:11.402Z,17.57
2023-05-22T21:28:39.275Z,17.53
2023-05-22T21:31:07.222Z,17.49
2023-05-22T21:33:35.237Z,17.46
2023-05-22T21:36:04.711Z,17.42
2023-05-22T21:38:32.502Z,17.36
2023-05-22T21:41:00.664Z,17.32
2023-05-22T21:43:28.461Z,17.30
2023-05-22T21:45:56.598Z,17.29
2023-05-22T21:48:24.397Z,17.28
2023-05-22T21:50:52.275Z,17.26
2023-05-22T21:53:21.736Z,17.22
2023-05-22T21:55:49.500Z,17.18
2023-05-22T21:58:17.310Z,17.14
2023-05-22T22:00:45.087Z,17.10
2023-05-22T22:03:13.244Z,17.09
2023-05-22T22:05:41.186Z,17.06
2023-05-22T22:08:08.988Z,17.01
2023-05-22T22:10:38.289Z,16.98
2023-05-22T22:13:06.298Z,16.94
2023-05-22T22:15:34.591Z,16.92
2023-05-22T22:18:03.718Z,16.89
2023-05-22T22:20:43.422Z,16.84
2023-05-22T22:23:11.803Z,16.82
2023-05-22T22:25:40.929Z,16.78
2023-05-22T22:28:08.488Z,16.71
2023-05-22T22:30:36.293Z,16.70
2023-05-22T22:33:04.137Z,16.69
2023-05-22T22:35:31.932Z,16.65
2023-05-22T22:37:59.799Z,16.64
2023-05-22T22:40:27.843Z,16.63
2023-05-22T22:42:56.968Z,16.60
2023-05-22T22:45:25.121Z,16.57
2023-05-22T22:47:53.178Z,16.55
2023-05-22T22:50:21.406Z,16.52
2023-05-22T22:52:49.418Z,16.50
2023-05-22T22:55:17.414Z,16.50
2023-05-22T22:57:47.092Z,16.47
2023-05-22T23:00:17.194Z,16.42
2023-05-22T23:02:45.031Z,16.39
2023-05-22T23:05:13.422Z,16.39
2023-05-22T23:07:41.293Z,16.38
2023-05-22T23:10:10.152Z,16.37
2023-05-22T23:12:37.903Z,16.34
2023-05-22T23:15:06.916Z,16.33
2023-05-22T23:17:36.107Z,16.33
2023-05-22T23:20:04.744Z,16.33
2023-05-22T23:22:32.533Z,16.35
2023-05-22T23:25:00.308Z,16.35
2023-05-22T23:27:28.136Z,16.36
2023-05-22T23:29:55.901Z,16.38
2023-05-22T23:32:23.695Z,16.34
2023-05-22T23:34:52.922Z,16.34
2023-05-22T23:37:20.513Z,16.26
2023-05-22T23:39:48.279Z,16.26
2023-05-22T23:42:16.911Z,16.27
2023-05-22T23:44:44.739Z,16.27
2023-05-22T23:47:12.571Z,16.28
2023-05-22T23:49:40.318Z,16.30
2023-05-22T23:52:09.538Z,16.28
2023-05-22T23:54:37.103Z,16.21
2023-05-22T23:57:05.406Z,16.22
2023-05-22T23:59:33.168Z,16.20
